Time;durP1;ratioP1;P1;durP2;ratioP2;P2;SDS_P1;SDS_P2;PMS_P1;PMS_P2;Temp;Humidity;BMP_temperature;BMP_pressure;BME280_temperature;BME280_humidity;BME280_pressure;Samples;Min_cycle;Max_cycle;Signal;HPM_P1;HPM_P2
2023/04/22 00:01:05;;;;;;;;;;;;;;;-142.75;100.00;76847.84;4950368;29;20012;-69
2023/04/22 00:03:32;;;;;;;;;;;;;;;-142.75;100.00;76879.34;4951140;28;19945;-70
2023/04/22 00:05:57;;;;;;;;;;;;;;;-142.75;100.00;76877.38;4951503;29;19941;-69
2023/04/22 00:08:23;;;;;;;;;;;;;;;-142.75;100.00;76871.47;4951756;29;19915;-70
2023/04/22 00:10:48;;;;;;;;;;;;;;;-142.75;100.00;76901.00;4951017;28;19927;-70
2023/04/22 00:13:13;;;;;;;;;;;;;;;-142.75;100.00;76902.97;4951014;28;19957;-69
2023/04/22 00:15:38;;;;;;;;;;;;;;;-142.75;100.00;76924.63;4951649;29;20485;-69
2023/04/22 00:18:04;;;;;;;;;;;;;;;-142.75;100.00;76932.50;4951480;29;19953;-69
2023/04/22 00:20:31;;;;;;;;;;;;;;;-142.75;100.00;76899.03;4951481;29;19914;-70
2023/04/22 00:22:56;;;;;;;;;;;;;;;-142.75;100.00;76889.19;4933322;29;20475;-70
2023/04/22 00:25:21;;;;;;;;;;;;;;;-142.75;100.00;76889.19;4951340;29;19914;-69
2023/04/22 00:27:46;;;;;;;;;;;;;;;-142.75;100.00;76897.06;4951437;29;19954;-69
2023/04/22 00:30:12;;;;;;;;;;;;;;;-142.75;100.00;76899.03;4951430;29;19941;-70
2023/04/22 00:32:37;;;;;;;;;;;;;;;-142.75;100.00;76916.75;4949669;28;19957;-69
2023/04/22 00:35:03;;;;;;;;;;;;;;;-142.75;100.00;76912.81;4951200;29;19918;-70
2023/04/22 00:37:28;;;;;;;;;;;;;;;-142.75;100.00;76912.81;4951277;29;20383;-70
2023/04/22 00:39:53;;;;;;;;;;;;;;;-142.75;100.00;76938.41;4951292;29;20416;-69
2023/04/22 00:42:20;;;;;;;;;;;;;;;-142.75;100.00;76934.47;4950931;29;19915;-69
2023/04/22 00:44:46;;;;;;;;;;;;;;;-142.75;100.00;76946.28;4950214;28;20005;-70
2023/04/22 00:47:11;;;;;;;;;;;;;;;-142.75;100.00;76940.38;4951224;28;20383;-70
2023/04/22 00:49:37;;;;;;;;;;;;;;;-142.75;100.00;76969.91;4951106;29;19914;-70
2023/04/22 00:52:03;;;;;;;;;;;;;;;-142.75;100.00;76987.63;4950966;28;19918;-69
2023/04/22 00:54:28;;;;;;;;;;;;;;;-142.75;100.00;77011.25;4950638;28;20069;-69
2023/04/22 00:56:54;;;;;;;;;;;;;;;-142.75;100.00;77009.28;4949078;28;20388;-69
2023/04/22 00:59:20;;;;;;;;;;;;;;;-142.75;100.00;76999.44;4950873;29;19961;-70
2023/04/22 01:01:45;;;;;;;;;;;;;;;-142.75;100.00;76995.50;4933352;29;19941;-70
2023/04/22 01:04:11;;;;;;;;;;;;;;;-142.75;100.00;76993.53;4936854;29;19914;-68
2023/04/22 01:06:38;;;;;;;;;;;;;;;-142.75;100.00;76995.50;4950935;29;20438;-68
2023/04/22 01:09:03;;;;;;;;;;;;;;;-142.75;100.00;76985.66;4951105;29;20379;-69
2023/04/22 01:11:28;;;;;;;;;;;;;;;-142.75;100.00;77013.22;4950917;29;19929;-70
2023/04/22 01:13:53;;;;;;;;;;;;;;;-142.75;100.00;76971.88;4950706;28;19918;-70
2023/04/22 01:16:19;;;;;;;;;;;;;;;-142.75;100.00;76973.84;4933308;29;20004;-69
2023/04/22 01:18:45;;;;;;;;;;;;;;;-142.75;100.00;76958.09;4950929;29;19914;-70
2023/04/22 01:21:10;;;;;;;;;;;;;;;-142.75;100.00;76960.06;4949505;28;19918;-70
2023/04/22 01:23:36;;;;;;;;;;;;;;;-142.75;100.00;76944.31;4951981;28;19972;-70
2023/04/22 01:26:02;;;;;;;;;;;;;;;-142.75;100.00;76952.19;4954685;29;19922;-69
2023/04/22 01:28:27;;;;;;;;;;;;;;;-142.75;100.00;76960.06;4954571;29;19914;-69
2023/04/22 01:30:53;;;;;;;;;;;;;;;-142.75;100.00;76940.38;4954655;29;19914;-69
2023/04/22 01:33:18;;;;;;;;;;;;;;;-142.75;100.00;76944.31;4951650;28;19918;-69
2023/04/22 01:35:43;;;;;;;;;;;;;;;-142.75;100.00;76944.31;4954396;29;19914;-71
2023/04/22 01:38:09;;;;;;;;;;;;;;;-142.75;100.00;76934.47;4953122;29;20630;-68
2023/04/22 01:40:36;;;;;;;;;;;;;;;-142.75;100.00;76932.50;4954284;29;19915;-68
2023/04/22 01:43:01;;;;;;;;;;;;;;;-142.75;100.00;76948.25;4954021;28;20383;-67
2023/04/22 01:45:27;;;;;;;;;;;;;;;-142.75;100.00;76938.41;4953556;28;19914;-69
2023/04/22 01:47:53;;;;;;;;;;;;;;;-142.75;100.00;76952.19;4954329;28;20327;-69
2023/04/22 01:50:18;;;;;;;;;;;;;;;-142.75;100.00;76969.91;4953908;29;19922;-68
2023/04/22 01:52:43;;;;;;;;;;;;;;;-142.75;100.00;76975.81;4952317;28;19918;-69
2023/04/22 01:55:09;;;;;;;;;;;;;;;-142.75;100.00;76954.16;4954023;29;19968;-69
2023/04/22 01:57:34;;;;;;;;;;;;;;;-142.75;100.00;76940.38;4954235;28;19969;-69
2023/04/22 01:59:59;;;;;;;;;;;;;;;-142.75;100.00;76938.41;4953956;29;19918;-70
2023/04/22 02:02:25;;;;;;;;;;;;;;;-142.75;100.00;76944.31;4953750;29;19915;-70
2023/04/22 02:04:50;;;;;;;;;;;;;;;-142.75;100.00;76948.25;4951993;28;20351;-69
2023/04/22 02:07:15;;;;;;;;;;;;;;;-142.75;100.00;76952.19;4936484;29;20299;-69
2023/04/22 02:09:40;;;;;;;;;;;;;;;-142.75;100.00;76954.16;4954065;29;19914;-69
2023/04/22 02:12:06;;;;;;;;;;;;;;;-142.75;100.00;76952.19;4952301;29;19921;-70
2023/04/22 02:14:31;;;;;;;;;;;;;;;-142.75;100.00;76960.06;4952582;28;19957;-70
2023/04/22 02:16:56;;;;;;;;;;;;;;;-142.75;100.00;76960.06;4951216;29;21825;-69
2023/04/22 02:19:22;;;;;;;;;;;;;;;-142.75;100.00;76967.94;4953364;29;20441;-69
2023/04/22 02:21:47;;;;;;;;;;;;;;;-142.75;100.00;76985.66;4953735;29;19914;-69
2023/04/22 02:24:12;;;;;;;;;;;;;;;-142.75;100.00;76997.47;4953186;28;19914;-69
2023/04/22 02:26:37;;;;;;;;;;;;;;;-142.75;100.00;77021.09;4951505;28;19922;-69
2023/04/22 02:29:02;;;;;;;;;;;;;;;-142.75;100.00;77046.69;4953540;29;19993;-69
2023/04/22 02:31:28;;;;;;;;;;;;;;;-142.75;100.00;77078.19;4953618;29;19997;-70
2023/04/22 02:33:53;;;;;;;;;;;;;;;-142.75;100.00;77119.53;4959799;28;20054;-70
2023/04/22 02:36:18;;;;;;;;;;;;;;;-142.75;100.00;77137.25;4953205;29;19965;-69
2023/04/22 02:38:43;;;;;;;;;;;;;;;-142.75;100.00;77131.34;4953477;29;19949;-69
2023/04/22 02:41:09;;;;;;;;;;;;;;;-142.75;100.00;77117.56;4953473;29;19915;-69
2023/04/22 02:43:34;;;;;;;;;;;;;;;-142.75;100.00;77099.84;4967651;28;19922;-69
2023/04/22 02:45:59;;;;;;;;;;;;;;;-142.75;100.00;77070.31;4953617;29;19918;-70
2023/04/22 02:48:25;;;;;;;;;;;;;;;-142.75;100.00;77056.53;4953141;29;19914;-70
2023/04/22 02:50:50;;;;;;;;;;;;;;;-142.75;100.00;77042.75;4952997;29;19946;-69
2023/04/22 02:53:15;;;;;;;;;;;;;;;-142.75;100.00;77030.94;4952766;28;20001;-69
2023/04/22 02:55:40;;;;;;;;;;;;;;;-142.75;100.00;77011.25;4994898;22;19961;-66
2023/04/22 02:58:06;;;;;;;;;;;;;;;-142.75;100.00;77007.31;4990926;28;20004;-66
2023/04/22 03:00:31;;;;;;;;;;;;;;;-142.75;100.00;76993.53;4991361;28;19988;-66
2023/04/22 03:02:56;;;;;;;;;;;;;;;-142.75;100.00;76987.63;4991260;28;20021;-67
2023/04/22 03:05:21;;;;;;;;;;;;;;;-142.75;100.00;76979.75;4991150;28;19920;-64
2023/04/22 03:07:48;;;;;;;;;;;;;;;-142.75;100.00;76995.50;4987578;28;19914;-67
2023/04/22 03:10:13;;;;;;;;;;;;;;;-142.75;100.00;76995.50;4991601;28;19921;-66
2023/04/22 03:12:38;;;;;;;;;;;;;;;-142.75;100.00;77007.31;4991073;28;19914;-66
2023/04/22 03:15:04;;;;;;;;;;;;;;;-142.75;100.00;77017.16;4991541;28;19973;-67
2023/04/22 03:17:29;;;;;;;;;;;;;;;-142.75;100.00;77007.31;4970470;28;19921;-66
2023/04/22 03:19:54;;;;;;;;;;;;;;;-142.75;100.00;77019.13;4971913;28;20321;-67
2023/04/22 03:22:20;;;;;;;;;;;;;;;-142.75;100.00;77011.25;4971587;28;19921;-66
2023/04/22 03:24:45;;;;;;;;;;;;;;;-142.75;100.00;77007.31;4971759;28;19918;-66
2023/04/22 03:27:10;;;;;;;;;;;;;;;-142.75;100.00;77009.28;4972023;28;19918;-66
2023/04/22 03:29:35;;;;;;;;;;;;;;;-142.75;100.00;77011.25;4971732;28;21405;-66
2023/04/22 03:32:00;;;;;;;;;;;;;;;-142.75;100.00;76997.47;4971413;28;19949;-67
2023/04/22 03:34:26;;;;;;;;;;;;;;;-142.75;100.00;76995.50;4968923;28;20303;-65
2023/04/22 03:36:51;;;;;;;;;;;;;;;-142.75;100.00;76979.75;4970937;28;20000;-66
2023/04/22 03:39:16;;;;;;;;;;;;;;;-142.75;100.00;76981.72;4971189;28;20000;-67
2023/04/22 03:41:41;;;;;;;;;;;;;;;-142.75;100.00;76979.75;4970849;28;19929;-66
2023/04/22 03:44:07;;;;;;;;;;;;;;;-142.75;100.00;76971.88;4970803;28;19914;-67
2023/04/22 03:46:32;;;;;;;;;;;;;;;-142.75;100.00;76975.81;4970905;28;19913;-66
2023/04/22 03:48:57;;;;;;;;;;;;;;;-142.75;100.00;76962.03;4971194;28;19921;-66
2023/04/22 03:51:22;;;;;;;;;;;;;;;-142.75;100.00;76948.25;4971349;28;19917;-67
2023/04/22 03:53:47;;;;;;;;;;;;;;;-142.75;100.00;76950.22;4970953;28;20567;-66
2023/04/22 03:56:12;;;;;;;;;;;;;;;-142.75;100.00;76936.44;4970594;28;19914;-67
2023/04/22 03:58:38;;;;;;;;;;;;;;;-142.75;100.00;76924.63;4970451;28;19914;-66
2023/04/22 04:01:03;;;;;;;;;;;;;;;-142.75;100.00;76906.91;4970347;28;19914;-66
2023/04/22 04:03:28;;;;;;;;;;;;;;;-142.75;100.00;76883.28;4970116;28;19921;-66
2023/04/22 04:05:53;;;;;;;;;;;;;;;-142.75;100.00;76885.25;4968994;28;19965;-66
2023/04/22 04:08:18;;;;;;;;;;;;;;;-142.75;100.00;76875.41;4970287;28;19913;-67
2023/04/22 04:10:44;;;;;;;;;;;;;;;-142.75;100.00;76869.50;4970502;28;19918;-66
2023/04/22 04:13:09;;;;;;;;;;;;;;;-142.75;100.00;76873.44;4980397;28;20001;-67
2023/04/22 04:15:35;;;;;;;;;;;;;;;-142.75;100.00;76869.50;4990581;28;20029;-67
2023/04/22 04:18:01;;;;;;;;;;;;;;;-142.75;100.00;76861.63;4990417;28;19922;-66
2023/04/22 04:20:27;;;;;;;;;;;;;;;-142.75;100.00;76855.72;4979188;28;19956;-66
2023/04/22 04:22:52;;;;;;;;;;;;;;;-142.75;100.00;76853.75;4970571;28;20406;-65
2023/04/22 04:25:19;;;;;;;;;;;;;;;-142.75;100.00;76834.06;4971399;28;19949;-66
2023/04/22 04:27:45;;;;;;;;;;;;;;;-142.75;100.00;76845.88;4970287;28;19914;-67
2023/04/22 04:30:10;;;;;;;;;;;;;;;-142.75;100.00;76830.13;4971618;28;19918;-66
2023/04/22 04:32:36;;;;;;;;;;;;;;;-142.75;100.00;76822.25;4971793;28;19955;-66
2023/04/22 04:35:02;;;;;;;;;;;;;;;-142.75;100.00;76822.25;4971472;28;20033;-65
2023/04/22 04:37:27;;;;;;;;;;;;;;;-142.75;100.00;76818.31;4972514;28;19914;-66
2023/04/22 04:39:52;;;;;;;;;;;;;;;-142.75;100.00;76814.38;4972289;28;19941;-67
2023/04/22 04:42:18;;;;;;;;;;;;;;;-142.75;100.00;76839.97;4972199;28;20000;-65
2023/04/22 04:44:43;;;;;;;;;;;;;;;-142.75;100.00;76851.78;4972336;28;19918;-66
2023/04/22 04:47:09;;;;;;;;;;;;;;;-142.75;100.00;76859.66;4972274;28;19914;-66
2023/04/22 04:49:38;;;;;;;;;;;;;;;-142.75;100.00;76893.13;4972326;28;19922;-67
2023/04/22 04:52:04;;;;;;;;;;;;;;;-142.75;100.00;76901.00;4972137;28;19992;-66
2023/04/22 04:54:29;;;;;;;;;;;;;;;-142.75;100.00;76910.84;4970207;28;20016;-66
2023/04/22 04:56:56;;;;;;;;;;;;;;;-142.75;100.00;76906.91;4970324;28;19914;-67
2023/04/22 04:59:21;;;;;;;;;;;;;;;-142.75;100.00;76893.13;4972049;28;19918;-67
2023/04/22 05:01:46;;;;;;;;;;;;;;;-142.75;100.00;76869.50;4970884;28;19964;-66
2023/04/22 05:04:11;;;;;;;;;;;;;;;-142.75;100.00;76843.91;4971815;28;19969;-67
2023/04/22 05:06:36;;;;;;;;;;;;;;;-142.75;100.00;76826.19;4987080;28;20284;-67
2023/04/22 05:09:02;;;;;;;;;;;;;;;-142.75;100.00;76820.28;4969498;28;20008;-64
2023/04/22 05:11:27;;;;;;;;;;;;;;;-142.75;100.00;76826.19;4970715;28;19953;-65
2023/04/22 05:13:52;;;;;;;;;;;;;;;-142.75;100.00;76816.34;4971028;28;20375;-66
2023/04/22 05:16:17;;;;;;;;;;;;;;;-142.75;100.00;76818.31;4970031;28;20444;-65
2023/04/22 05:18:43;;;;;;;;;;;;;;;-142.75;100.00;76824.22;4971468;28;19967;-66
2023/04/22 05:21:08;;;;;;;;;;;;;;;-142.75;100.00;76826.19;4970533;28;20465;-65
2023/04/22 05:23:33;;;;;;;;;;;;;;;-142.75;100.00;76828.16;4971069;28;19914;-65
2023/04/22 05:25:59;;;;;;;;;;;;;;;-142.75;100.00;76810.44;4970562;28;20371;-64
2023/04/22 05:28:24;;;;;;;;;;;;;;;-142.75;100.00;76816.34;4982245;28;19922;-67
2023/04/22 05:30:49;;;;;;;;;;;;;;;-142.75;100.00;76816.34;4991351;28;19972;-67
2023/04/22 05:33:15;;;;;;;;;;;;;;;-142.75;100.00;76816.34;4989601;28;19965;-66
2023/04/22 05:35:40;;;;;;;;;;;;;;;-142.75;100.00;76810.44;4991146;28;19922;-66
2023/04/22 05:38:05;;;;;;;;;;;;;;;-142.75;100.00;76818.31;4991247;28;19948;-67
2023/04/22 05:40:30;;;;;;;;;;;;;;;-142.75;100.00;76818.31;4991140;28;20342;-67
2023/04/22 05:42:56;;;;;;;;;;;;;;;-142.75;100.00;76808.50;4990030;28;20290;-67
2023/04/22 05:45:21;;;;;;;;;;;;;;;-142.75;100.00;76806.50;4989785;28;19913;-66
2023/04/22 05:47:46;;;;;;;;;;;;;;;-142.75;100.00;76782.91;4989995;28;20020;-66
2023/04/22 05:50:12;;;;;;;;;;;;;;;-142.75;100.00;76790.78;4989833;28;20283;-66
2023/04/22 05:52:37;;;;;;;;;;;;;;;-142.75;100.00;76775.03;4990754;28;20401;-67
2023/04/22 05:55:03;;;;;;;;;;;;;;;-142.75;100.00;76775.03;4990834;28;20413;-66
2023/04/22 05:57:28;;;;;;;;;;;;;;;-142.75;100.00;76767.16;4990949;28;19913;-67
2023/04/22 05:59:53;;;;;;;;;;;;;;;-142.75;100.00;76757.31;4973135;28;19914;-66
2023/04/22 06:02:18;;;;;;;;;;;;;;;-142.75;100.00;76739.59;4970979;28;19992;-65
2023/04/22 06:04:44;;;;;;;;;;;;;;;-142.75;100.00;76731.72;4982969;28;19913;-67
2023/04/22 06:07:09;;;;;;;;;;;;;;;-142.75;100.00;76719.91;4990973;28;19936;-64
2023/04/22 06:09:35;;;;;;;;;;;;;;;-142.75;100.00;76714.00;4991287;28;19920;-66
2023/04/22 06:12:01;;;;;;;;;;;;;;;-142.75;100.00;76700.22;4975025;28;20468;-67
2023/04/22 06:14:26;;;;;;;;;;;;;;;-142.75;100.00;76682.50;4974684;28;19918;-67
2023/04/22 06:16:52;;;;;;;;;;;;;;;-142.75;100.00;76684.47;4974822;28;20014;-67
2023/04/22 06:19:17;;;;;;;;;;;;;;;-142.75;100.00;76682.50;4974358;28;19961;-66
2023/04/22 06:21:43;;;;;;;;;;;;;;;-142.75;100.00;76678.56;4974794;28;19914;-67
2023/04/22 06:24:09;;;;;;;;;;;;;;;-142.75;100.00;76666.75;4973253;28;20371;-67
2023/04/22 06:26:35;;;;;;;;;;;;;;;-142.75;100.00;76670.69;4974788;28;19920;-67
2023/04/22 06:29:01;;;;;;;;;;;;;;;-142.75;100.00;76662.81;4974570;28;19914;-67
2023/04/22 06:31:26;;;;;;;;;;;;;;;-142.75;100.00;76662.81;4974588;28;19914;-67
2023/04/22 06:33:52;;;;;;;;;;;;;;;-142.75;100.00;76662.81;4972917;28;19918;-68
2023/04/22 06:36:17;;;;;;;;;;;;;;;-142.75;100.00;76641.16;4973196;28;19914;-66
2023/04/22 06:38:42;;;;;;;;;;;;;;;-142.75;100.00;76633.28;4974556;28;20283;-67
2023/04/22 06:41:07;;;;;;;;;;;;;;;-142.75;100.00;76613.59;4974378;28;19914;-67
2023/04/22 06:43:32;;;;;;;;;;;;;;;-142.75;100.00;76597.84;4974172;28;20375;-67
2023/04/22 06:45:58;;;;;;;;;;;;;;;-142.75;100.00;76589.97;4974257;28;19914;-65
2023/04/22 06:48:23;;;;;;;;;;;;;;;-142.75;100.00;76578.16;4974237;28;19914;-68
2023/04/22 06:50:48;;;;;;;;;;;;;;;-142.75;100.00;76570.28;4974263;28;19914;-68
2023/04/22 06:53:13;;;;;;;;;;;;;;;-142.75;100.00;76552.56;4969675;28;20433;-65
2023/04/22 06:55:39;;;;;;;;;;;;;;;-142.75;100.00;76542.72;4973732;28;19925;-67
2023/04/22 06:58:04;;;;;;;;;;;;;;;-142.75;100.00;76532.88;4971816;28;20257;-67
2023/04/22 07:00:29;;;;;;;;;;;;;;;-142.75;100.00;76528.97;4969113;28;20426;-68
2023/04/22 07:02:54;;;;;;;;;;;;;;;-142.75;100.00;76527.00;4974718;28;19914;-66
2023/04/22 07:05:20;;;;;;;;;;;;;;;-142.75;100.00;76515.19;4968953;28;20541;-67
2023/04/22 07:07:45;;;;;;;;;;;;;;;-142.75;100.00;76507.31;4975836;28;20389;-67
2023/04/22 07:10:11;;;;;;;;;;;;;;;-142.75;100.00;76525.03;4975682;28;19918;-67
2023/04/22 07:12:36;;;;;;;;;;;;;;;-142.75;100.00;76534.84;4973793;28;19922;-67
2023/04/22 07:15:02;;;;;;;;;;;;;;;-142.75;100.00;76534.84;4969043;28;19925;-66
2023/04/22 07:17:27;;;;;;;;;;;;;;;-142.75;100.00;76560.44;4968759;28;19914;-68
2023/04/22 07:19:52;;;;;;;;;;;;;;;-142.75;100.00;76525.03;4969852;28;20350;-66
2023/04/22 07:22:17;;;;;;;;;;;;;;;-142.75;100.00;76503.38;4972339;28;19922;-66
2023/04/22 07:24:42;;;;;;;;;;;;;;;-142.75;100.00;76493.53;4972685;28;19920;-66
2023/04/22 07:27:08;;;;;;;;;;;;;;;-142.75;100.00;76517.16;4973420;28;19957;-66
2023/04/22 07:29:33;;;;;;;;;;;;;;;-142.75;100.00;76509.28;4966098;28;20357;-66
2023/04/22 07:31:58;;;;;;;;;;;;;;;-142.75;100.00;76515.19;4972948;28;20430;-66
2023/04/22 07:34:23;;;;;;;;;;;;;;;-142.75;100.00;76509.28;4969072;28;19918;-66
2023/04/22 07:36:50;;;;;;;;;;;;;;;-142.75;100.00;76507.31;4971937;28;19945;-66
2023/04/22 07:39:15;;;;;;;;;;;;;;;-142.75;100.00;76487.63;4972318;28;19914;-66
2023/04/22 07:41:40;;;;;;;;;;;;;;;-142.75;100.00;76475.81;4972582;28;19918;-66
2023/04/22 07:44:05;;;;;;;;;;;;;;;-142.75;100.00;76454.16;4972261;28;19921;-66
2023/04/22 07:46:31;;;;;;;;;;;;;;;-142.75;100.00;76436.44;4972641;28;19918;-66
2023/04/22 07:48:56;;;;;;;;;;;;;;;-142.75;100.00;76373.44;4972889;28;19914;-66
2023/04/22 07:51:21;;;;;;;;;;;;;;;-142.75;100.00;76326.22;4964300;28;19921;-66
2023/04/22 07:53:46;;;;;;;;;;;;;;;-142.75;100.00;76277.00;4970582;28;19918;-66
2023/04/22 07:56:12;;;;;;;;;;;;;;;-142.75;100.00;76257.31;4971208;28;20003;-66
2023/04/22 07:58:37;;;;;;;;;;;;;;;-142.75;100.00;76269.13;4972081;28;19969;-66
2023/04/22 08:01:02;;;;;;;;;;;;;;;-142.75;100.00;76269.13;4971956;28;20367;-66
2023/04/22 08:03:27;;;;;;;;;;;;;;;-142.75;100.00;76223.84;4963257;28;19917;-66
2023/04/22 08:05:53;;;;;;;;;;;;;;;-142.75;100.00;76192.38;4966514;28;19953;-65
2023/04/22 08:08:18;;;;;;;;;;;;;;;-142.75;100.00;76162.84;4972010;28;19918;-66
2023/04/22 08:10:43;;;;;;;;;;;;;;;-142.75;100.00;76160.88;4964916;28;20010;-65
2023/04/22 08:13:08;;;;;;;;;;;;;;;-142.75;100.00;76178.59;4973308;28;20316;-65
2023/04/22 08:15:33;;;;;;;;;;;;;;;-142.75;100.00;76180.56;4972246;28;21376;-67
2023/04/22 08:17:59;;;;;;;;;;;;;;;-142.75;100.00;76133.31;4972303;28;19914;-65
2023/04/22 08:20:24;;;;;;;;;;;;;;;-142.75;100.00;76099.84;4973933;28;20005;-66
2023/04/22 08:22:50;;;;;;;;;;;;;;;-142.75;100.00;76111.66;4982070;28;19968;-67
2023/04/22 08:25:16;;;;;;;;;;;;;;;-142.75;100.00;76109.69;4991911;28;20526;-67
2023/04/22 08:27:41;;;;;;;;;;;;;;;-142.75;100.00;76064.44;4974510;28;19961;-67
2023/04/22 08:30:06;;;;;;;;;;;;;;;-142.75;100.00;76052.63;4991711;28;19914;-67
2023/04/22 08:32:32;;;;;;;;;;;;;;;-142.75;100.00;76042.78;4968588;28;19922;-66
2023/04/22 08:34:57;;;;;;;;;;;;;;;-142.75;100.00;76070.34;4971043;28;19918;-67
2023/04/22 08:37:24;;;;;;;;;;;;;;;-142.75;100.00;76088.03;4972569;28;19968;-65
2023/04/22 08:39:49;;;;;;;;;;;;;;;-142.75;100.00;76003.41;4972510;28;19921;-65
2023/04/22 08:42:15;;;;;;;;;;;;;;;-142.75;100.00;75956.19;4972315;28;19914;-65
2023/04/22 08:44:40;;;;;;;;;;;;;;;-142.75;100.00;75979.78;4972108;28;20298;-65
2023/04/22 08:47:05;;;;;;;;;;;;;;;-142.75;100.00;75979.78;4972435;28;19949;-67
2023/04/22 08:49:33;;;;;;;;;;;;;;;-142.75;100.00;76032.94;4971017;28;19922;-66
2023/04/22 08:52:01;;;;;;;;;;;;;;;-142.75;100.00;75979.78;4972328;28;19920;-67
2023/04/22 08:54:26;;;;;;;;;;;;;;;-142.75;100.00;75960.13;4976553;28;20008;-66
2023/04/22 08:56:52;;;;;;;;;;;;;;;-142.75;100.00;75960.13;4992039;28;19996;-65
2023/04/22 08:59:18;;;;;;;;;;;;;;;-142.75;100.00;75944.38;4991473;28;20378;-67
2023/04/22 09:01:48;;;;;;;;;;;;;;;-142.75;100.00;75938.47;4991548;28;19913;-66
2023/04/22 09:04:13;;;;;;;;;;;;;;;-142.75;100.00;75973.88;4973724;28;19960;-66
2023/04/22 09:06:39;;;;;;;;;;;;;;;-142.75;100.00;75979.78;4990742;28;19913;-66
2023/04/22 09:09:04;;;;;;;;;;;;;;;-142.75;100.00;75979.78;4986060;28;19918;-67
2023/04/22 09:11:30;;;;;;;;;;;;;;;-142.75;100.00;76038.84;4970933;28;19917;-66
2023/04/22 09:13:55;;;;;;;;;;;;;;;-142.75;100.00;76070.34;4968912;28;20008;-66
2023/04/22 09:16:21;;;;;;;;;;;;;;;-142.75;100.00;76048.69;4978880;28;20371;-64
2023/04/22 09:18:46;;;;;;;;;;;;;;;-142.75;100.00;76046.72;4971230;28;20010;-66
2023/04/22 09:21:12;;;;;;;;;;;;;;;-142.75;100.00;76072.31;4978350;28;20020;-66
2023/04/22 09:23:50;;;;;;;;;;;;;;;-142.75;100.00;76078.19;4969159;28;19953;-66
2023/04/22 09:26:20;;;;;;;;;;;;;;;-142.75;100.00;76070.34;4970254;28;20386;-66
2023/04/22 09:28:53;;;;;;;;;;;;;;;-142.75;100.00;76070.34;4970631;28;19989;-66
2023/04/22 09:31:19;;;;;;;;;;;;;;;-142.75;100.00;76068.38;4971897;28;19914;-66
2023/04/22 09:33:52;;;;;;;;;;;;;;;-142.75;100.00;76090.00;4971871;28;19913;-66
2023/04/22 09:36:39;;;;;;;;;;;;;;;-142.75;100.00;76058.53;4973231;28;19914;-66
2023/04/22 09:39:08;;;;;;;;;;;;;;;-142.75;100.00;76003.41;4970631;28;19914;-66
2023/04/22 09:41:36;;;;;;;;;;;;;;;-142.75;100.00;75987.66;4986710;28;19968;-66
2023/04/22 09:44:02;;;;;;;;;;;;;;;-142.75;100.00;75979.78;4973793;28;19917;-65
2023/04/22 09:46:28;;;;;;;;;;;;;;;-142.75;100.00;76003.41;4976058;28;20001;-65
2023/04/22 09:48:54;;;;;;;;;;;;;;;-142.75;100.00;75956.19;4975231;28;19965;-66
2023/04/22 09:51:19;;;;;;;;;;;;;;;-142.75;100.00;75973.88;4975508;28;19917;-65
2023/04/22 09:53:55;;;;;;;;;;;;;;;-142.75;100.00;75920.75;4975163;28;19920;-66
2023/04/22 09:56:22;;;;;;;;;;;;;;;-142.75;100.00;75948.31;4974864;28;19921;-66
2023/04/22 09:58:51;;;;;;;;;;;;;;;-142.75;100.00;75916.81;4975317;28;19921;-66
2023/04/22 10:01:16;;;;;;;;;;;;;;;-142.75;100.00;75944.38;4981634;28;19914;-65
2023/04/22 10:03:41;;;;;;;;;;;;;;;-142.75;100.00;75936.50;4966424;28;19922;-66
2023/04/22 10:06:06;;;;;;;;;;;;;;;-142.75;100.00;75920.75;4974549;28;19972;-66
2023/04/22 10:08:32;;;;;;;;;;;;;;;-142.75;100.00;75964.03;4959935;28;20044;-66
2023/04/22 10:10:57;;;;;;;;;;;;;;;-142.75;100.00;76005.38;4994450;28;19914;-67
2023/04/22 10:13:22;;;;;;;;;;;;;;;-142.75;100.00;75997.50;4994061;28;19960;-66
2023/04/22 10:15:49;;;;;;;;;;;;;;;-142.75;100.00;75989.63;4994039;28;19918;-67
2023/04/22 10:18:17;;;;;;;;;;;;;;;-142.75;100.00;75997.50;4994363;28;20012;-66
2023/04/22 10:20:43;;;;;;;;;;;;;;;-142.75;100.00;76013.25;4976725;28;20438;-66
2023/04/22 10:23:17;;;;;;;;;;;;;;;-142.75;100.00;76036.88;4993986;28;19992;-66
2023/04/22 10:25:45;;;;;;;;;;;;;;;-142.75;100.00;76048.69;4994135;28;19917;-66
2023/04/22 10:28:11;;;;;;;;;;;;;;;-142.75;100.00;76082.13;4994626;28;19921;-67
2023/04/22 10:30:37;;;;;;;;;;;;;;;-142.75;100.00;76103.78;4992783;28;19914;-67
2023/04/22 10:33:26;;;;;;;;;;;;;;;-142.75;100.00;76121.50;4993678;28;20378;-66
2023/04/22 10:36:16;;;;;;;;;;;;;;;-142.75;100.00;76115.59;4983629;28;19928;-66
2023/04/22 10:39:07;;;;;;;;;;;;;;;-142.75;100.00;76105.75;4974702;28;19925;-68
2023/04/22 10:41:33;;;;;;;;;;;;;;;-142.75;100.00;76105.75;4971727;28;19921;-66
2023/04/22 10:43:59;;;;;;;;;;;;;;;-142.75;100.00;76093.94;4972996;28;19914;-67
2023/04/22 10:46:35;;;;;;;;;;;;;;;-142.75;100.00;76135.28;4972933;28;19922;-67
2023/04/22 10:49:21;;;;;;;;;;;;;;;-142.75;100.00;76131.34;4972382;28;20176;-66
2023/04/22 10:51:47;;;;;;;;;;;;;;;-142.75;100.00;76115.59;4971037;28;19934;-67
2023/04/22 10:54:35;;;;;;;;;;;;;;;-142.75;100.00;76111.66;4972041;28;19924;-66
2023/04/22 10:57:11;;;;;;;;;;;;;;;-142.75;100.00;76105.75;4957288;28;19914;-66
2023/04/22 10:59:39;;;;;;;;;;;;;;;-142.75;100.00;76093.94;4977781;28;19918;-67
2023/04/22 11:02:05;;;;;;;;;;;;;;;-142.75;100.00;76076.22;4972286;28;19996;-66
2023/04/22 11:04:31;;;;;;;;;;;;;;;-142.75;100.00;76125.44;4972543;28;20054;-66
2023/04/22 11:07:29;;;;;;;;;;;;;;;-142.75;100.00;76117.56;4972351;28;20430;-66
2023/04/22 11:09:57;;;;;;;;;;;;;;;-142.75;100.00;76145.13;4972824;28;19914;-67
2023/04/22 11:12:37;;;;;;;;;;;;;;;-142.75;100.00;76153.00;4971761;28;20447;-66
2023/04/22 11:15:06;;;;;;;;;;;;;;;-142.75;100.00;76143.16;4970450;28;19918;-67
2023/04/22 11:17:31;;;;;;;;;;;;;;;-142.75;100.00;76172.69;4972080;28;19940;-66
2023/04/22 11:19:57;;;;;;;;;;;;;;;-142.75;100.00;76186.47;4971953;28;20386;-67
2023/04/22 11:22:22;;;;;;;;;;;;;;;-142.75;100.00;76184.50;4986435;28;19921;-67
2023/04/22 11:24:54;;;;;;;;;;;;;;;-142.75;100.00;76196.31;4971775;28;19914;-66
2023/04/22 11:27:25;;;;;;;;;;;;;;;-142.75;100.00;76200.25;4971479;28;19953;-67
2023/04/22 11:29:59;;;;;;;;;;;;;;;-142.75;100.00;76192.38;4970707;28;20017;-67
2023/04/22 11:32:25;;;;;;;;;;;;;;;-142.75;100.00;76210.06;4970810;28;20362;-67
2023/04/22 11:34:50;;;;;;;;;;;;;;;-142.75;100.00;76229.75;4969617;28;19957;-66
2023/04/22 11:37:17;;;;;;;;;;;;;;;-142.75;100.00;76200.25;4963991;28;19914;-67
2023/04/22 11:39:43;;;;;;;;;;;;;;;-142.75;100.00;76190.41;4971755;28;19921;-67
2023/04/22 11:42:08;;;;;;;;;;;;;;;-142.75;100.00;76215.97;4971926;28;19914;-67
2023/04/22 11:44:33;;;;;;;;;;;;;;;-142.75;100.00;76235.66;4970890;28;20318;-66
2023/04/22 11:46:59;;;;;;;;;;;;;;;-142.75;100.00;76237.63;4972562;28;19921;-67
2023/04/22 11:49:25;;;;;;;;;;;;;;;-142.75;100.00;76255.34;4967456;28;19917;-66
2023/04/22 11:51:52;;;;;;;;;;;;;;;-142.75;100.00;76239.59;4972093;28;19929;-66
2023/04/22 11:54:27;;;;;;;;;;;;;;;-142.75;100.00;76223.84;4972890;28;19918;-67
2023/04/22 11:56:53;;;;;;;;;;;;;;;-142.75;100.00;76239.59;4973011;28;19997;-67
2023/04/22 11:59:18;;;;;;;;;;;;;;;-142.75;100.00;76249.44;4972982;28;20082;-67
2023/04/22 12:01:45;;;;;;;;;;;;;;;-142.75;100.00;76257.31;4971778;28;19914;-67
2023/04/22 12:04:10;;;;;;;;;;;;;;;-142.75;100.00;76251.41;4981982;28;20288;-66
2023/04/22 12:06:39;;;;;;;;;;;;;;;-142.75;100.00;76219.91;4975973;28;19929;-67
2023/04/22 12:09:06;;;;;;;;;;;;;;;-142.75;100.00;76223.84;4971995;28;19972;-67
2023/04/22 12:11:31;;;;;;;;;;;;;;;-142.75;100.00;76212.03;4973021;28;19933;-67
2023/04/22 12:14:04;;;;;;;;;;;;;;;-142.75;100.00;76208.09;4972508;28;19921;-67